createdAt,value
2023-03-17T00:01:24.520Z,14.52
2023-03-17T00:03:51.647Z,15.57
2023-03-17T00:06:25.370Z,16.42
2023-03-17T00:08:53.292Z,14.45
2023-03-17T00:11:22.910Z,13.70
2023-03-17T00:13:55.751Z,12.85
2023-03-17T00:16:28.846Z,13.70
2023-03-17T00:18:57.625Z,14.20
2023-03-17T00:21:30.809Z,13.10
2023-03-17T00:23:58.682Z,10.85
2023-03-17T00:26:26.003Z,13.05
2023-03-17T00:28:56.119Z,13.15
2023-03-17T00:31:29.098Z,14.02
2023-03-17T00:34:04.866Z,13.87
2023-03-17T00:36:35.638Z,12.68
2023-03-17T00:41:40.153Z,14.30
2023-03-17T00:44:06.821Z,13.95
2023-03-17T00:46:38.304Z,13.10
2023-03-17T00:49:19.476Z,13.88
2023-03-17T00:51:49.756Z,14.38
2023-03-17T00:54:17.805Z,14.40
2023-03-17T00:56:47.407Z,12.48
2023-03-17T00:59:20.906Z,11.20
2023-03-17T01:01:49.004Z,11.87
2023-03-17T01:04:15.993Z,13.68
2023-03-17T01:06:43.364Z,11.65
2023-03-17T01:09:14.824Z,11.98
2023-03-17T01:11:42.193Z,11.70
2023-03-17T01:14:10.842Z,16.83
2023-03-17T01:16:37.753Z,14.98
2023-03-17T01:19:04.820Z,12.70
2023-03-17T01:21:34.654Z,12.30
2023-03-17T01:24:04.542Z,12.25
2023-03-17T01:26:34.260Z,10.30
2023-03-17T01:29:00.889Z,10.85
2023-03-17T01:31:28.191Z,13.32
2023-03-17T01:33:57.057Z,9.55
2023-03-17T01:36:23.682Z,9.70
2023-03-17T01:38:51.060Z,11.15
2023-03-17T01:41:20.842Z,11.27
2023-03-17T01:43:50.359Z,12.38
2023-03-17T01:46:35.515Z,12.07
2023-03-17T01:49:05.925Z,13.88
2023-03-17T01:51:38.822Z,12.27
2023-03-17T01:54:11.129Z,11.48
2023-03-17T01:56:44.588Z,10.65
2023-03-17T01:59:20.153Z,12.40
2023-03-17T02:01:49.740Z,9.88
2023-03-17T02:04:23.504Z,9.88
2023-03-17T02:06:58.268Z,10.15
2023-03-17T02:09:30.296Z,10.43
2023-03-17T02:11:59.924Z,11.30
2023-03-17T02:14:27.365Z,11.68
2023-03-17T02:17:00.578Z,10.18
2023-03-17T02:19:30.565Z,10.35
2023-03-17T02:22:01.534Z,9.85
2023-03-17T02:24:36.313Z,11.23
2023-03-17T02:27:34.952Z,9.85
2023-03-17T02:30:15.668Z,9.68
2023-03-17T02:32:42.555Z,10.35
2023-03-17T02:35:10.443Z,13.55
2023-03-17T02:37:38.000Z,8.50
2023-03-17T02:40:10.275Z,10.02
2023-03-17T02:42:40.234Z,9.38
2023-03-17T02:45:11.640Z,8.90
2023-03-17T02:47:44.849Z,9.68
2023-03-17T02:50:18.608Z,9.70
2023-03-17T02:52:47.251Z,10.13
2023-03-17T02:55:14.345Z,9.63
2023-03-17T02:57:41.208Z,9.55
2023-03-17T03:00:11.705Z,12.00
2023-03-17T03:02:38.388Z,9.45
2023-03-17T03:05:10.579Z,8.85
2023-03-17T03:07:44.361Z,9.05
2023-03-17T03:10:11.447Z,20.50
2023-03-17T03:12:42.961Z,10.88
2023-03-17T03:15:10.296Z,10.45
2023-03-17T03:17:36.981Z,10.68
2023-03-17T03:20:05.114Z,8.82
2023-03-17T03:22:37.194Z,9.77
2023-03-17T03:25:04.355Z,11.35
2023-03-17T03:27:33.962Z,8.13
2023-03-17T03:30:01.078Z,8.63
2023-03-17T03:32:28.595Z,8.35
2023-03-17T03:34:55.239Z,7.57
2023-03-17T03:37:25.114Z,6.38
2023-03-17T03:39:57.131Z,8.80
2023-03-17T03:42:29.273Z,7.55
2023-03-17T03:44:58.042Z,7.78
2023-03-17T03:47:32.518Z,7.68
2023-03-17T03:52:31.128Z,7.20
2023-03-17T03:54:57.751Z,6.65
2023-03-17T03:57:25.452Z,7.60
2023-03-17T03:59:52.335Z,6.93
2023-03-17T04:02:19.099Z,7.00
2023-03-17T04:04:48.323Z,7.35
2023-03-17T04:07:17.294Z,6.78
2023-03-17T04:09:44.252Z,7.28
2023-03-17T04:12:11.294Z,7.45
2023-03-17T04:14:40.597Z,8.00
2023-03-17T04:17:12.241Z,7.45
2023-03-17T04:19:42.490Z,7.50
2023-03-17T04:22:13.348Z,8.55
2023-03-17T04:24:40.421Z,9.95
2023-03-17T04:27:08.040Z,8.88
2023-03-17T04:29:34.729Z,8.10
2023-03-17T04:32:03.810Z,7.97
2023-03-17T04:34:33.387Z,10.02
2023-03-17T04:37:01.073Z,9.38
2023-03-17T04:39:28.184Z,9.55
2023-03-17T04:41:58.873Z,6.60
2023-03-17T04:44:30.068Z,8.27
2023-03-17T04:46:58.785Z,8.05
2023-03-17T04:49:26.215Z,10.73
2023-03-17T04:51:52.785Z,8.55
2023-03-17T04:54:21.333Z,8.95
2023-03-17T04:56:48.047Z,7.78
2023-03-17T04:59:17.236Z,8.27
2023-03-17T05:01:43.859Z,8.02
2023-03-17T05:04:12.803Z,8.82
2023-03-17T05:06:45.802Z,8.32
2023-03-17T05:09:14.979Z,10.23
2023-03-17T05:11:42.239Z,9.38
2023-03-17T05:14:11.626Z,9.88
2023-03-17T05:16:42.556Z,17.20
2023-03-17T05:19:12.472Z,13.65
2023-03-17T05:21:39.089Z,11.50
2023-03-17T05:24:07.931Z,13.77
2023-03-17T05:26:34.914Z,13.05
2023-03-17T05:29:02.004Z,13.02
2023-03-17T05:31:28.714Z,13.90
2023-03-17T05:33:55.453Z,13.45
2023-03-17T05:36:24.125Z,13.63
2023-03-17T05:38:50.700Z,10.23
2023-03-17T05:41:19.412Z,12.82
2023-03-17T05:43:48.499Z,12.30
2023-03-17T05:46:16.410Z,14.88
2023-03-17T05:48:47.192Z,14.50
2023-03-17T05:51:13.889Z,17.60
2023-03-17T05:53:41.082Z,20.42
2023-03-17T05:56:08.220Z,16.92
2023-03-17T05:58:35.167Z,17.42
2023-03-17T06:01:03.876Z,12.00
2023-03-17T06:03:30.674Z,11.93
2023-03-17T06:05:57.504Z,13.02
2023-03-17T06:08:24.121Z,13.13
2023-03-17T06:10:53.389Z,13.32
2023-03-17T06:13:20.148Z,14.70
2023-03-17T06:15:52.048Z,16.38
2023-03-17T06:18:19.909Z,13.82
2023-03-17T06:20:46.971Z,13.30
2023-03-17T06:23:14.011Z,11.10
2023-03-17T06:25:43.559Z,11.95
2023-03-17T06:28:13.440Z,12.90
2023-03-17T06:30:42.526Z,12.73
2023-03-17T06:33:09.497Z,16.35
2023-03-17T06:35:38.406Z,20.45
2023-03-17T06:38:05.264Z,16.00
2023-03-17T06:40:34.567Z,15.05
2023-03-17T06:43:04.118Z,13.05
2023-03-17T06:45:33.934Z,14.60
2023-03-17T06:48:01.955Z,15.45
2023-03-17T06:50:37.574Z,17.08
2023-03-17T06:53:04.670Z,17.20
2023-03-17T06:55:32.140Z,20.67
2023-03-17T06:57:59.234Z,24.15
2023-03-17T07:00:26.547Z,23.95
2023-03-17T07:02:58.708Z,19.48
2023-03-17T07:05:41.404Z,21.95
2023-03-17T07:08:08.949Z,25.33
2023-03-17T07:10:36.857Z,19.75
2023-03-17T07:13:04.253Z,17.17
2023-03-17T07:15:35.121Z,15.38
2023-03-17T07:18:11.927Z,15.45
2023-03-17T07:20:38.596Z,13.05
2023-03-17T07:23:05.275Z,16.88
2023-03-17T07:25:34.564Z,11.52
2023-03-17T07:28:01.239Z,11.45
2023-03-17T07:30:28.785Z,8.57
2023-03-17T07:33:00.279Z,7.95
2023-03-17T07:35:33.601Z,5.63
2023-03-17T07:38:05.376Z,7.75
2023-03-17T07:40:34.294Z,6.57
2023-03-17T07:43:02.702Z,5.22
2023-03-17T07:45:29.629Z,4.07
2023-03-17T07:47:56.527Z,3.60
2023-03-17T07:50:27.545Z,3.28
2023-03-17T07:52:55.691Z,4.63
2023-03-17T07:55:22.586Z,3.15
2023-03-17T07:57:49.515Z,3.60
2023-03-17T08:00:17.249Z,3.58
2023-03-17T08:02:53.705Z,3.55
2023-03-17T08:05:29.010Z,2.15
2023-03-17T08:07:55.668Z,2.38
2023-03-17T08:10:22.857Z,1.27
2023-03-17T08:12:52.105Z,1.70
2023-03-17T08:15:18.923Z,2.50
2023-03-17T08:17:46.794Z,6.25
2023-03-17T08:20:14.368Z,3.08
2023-03-17T08:22:41.611Z,2.53
2023-03-17T08:25:09.745Z,4.95
2023-03-17T08:27:36.564Z,4.85
2023-03-17T08:30:04.710Z,2.67
2023-03-17T08:32:31.598Z,3.42
2023-03-17T08:34:58.255Z,3.00
2023-03-17T08:37:24.966Z,2.60
2023-03-17T08:39:51.809Z,6.60
2023-03-17T08:42:18.382Z,2.83
2023-03-17T08:44:44.997Z,6.50
2023-03-17T08:47:11.660Z,29.55
2023-03-17T08:49:41.307Z,9.90
2023-03-17T08:52:08.301Z,1.90
2023-03-17T08:54:35.831Z,2.97
2023-03-17T08:57:02.793Z,4.97
2023-03-17T08:59:29.509Z,14.95
2023-03-17T09:01:56.963Z,3.00
2023-03-17T09:04:23.643Z,8.85
2023-03-17T09:07:02.847Z,2.65
2023-03-17T09:09:31.332Z,2.55
2023-03-17T09:12:00.362Z,4.32
2023-03-17T09:14:27.583Z,1.50
2023-03-17T09:16:57.320Z,2.10
2023-03-17T09:19:24.182Z,3.72
2023-03-17T09:21:52.009Z,3.47
2023-03-17T09:24:21.192Z,2.63
2023-03-17T09:26:47.820Z,3.03
2023-03-17T09:29:15.412Z,2.15
2023-03-17T09:31:45.080Z,2.90
2023-03-17T09:34:11.913Z,2.03
2023-03-17T09:36:38.772Z,1.60
2023-03-17T09:39:06.814Z,2.00
2023-03-17T09:41:51.478Z,5.07
2023-03-17T09:44:42.391Z,4.32
2023-03-17T09:47:40.083Z,2.35
2023-03-17T09:50:17.273Z,3.72
2023-03-17T09:52:44.241Z,12.52
2023-03-17T09:55:20.886Z,4.65
2023-03-17T09:57:48.116Z,9.55
2023-03-17T10:00:29.372Z,12.98
2023-03-17T10:02:57.947Z,6.82
2023-03-17T10:05:39.944Z,6.30
2023-03-17T10:08:32.116Z,5.38
2023-03-17T10:11:05.974Z,6.80
2023-03-17T10:13:58.704Z,2.00
2023-03-17T10:16:38.301Z,2.90
2023-03-17T10:19:19.606Z,3.28
2023-03-17T10:22:17.016Z,1.90
2023-03-17T10:24:48.234Z,2.92
2023-03-17T10:27:19.504Z,4.63
2023-03-17T10:29:48.828Z,7.10
2023-03-17T10:32:16.122Z,2.35
2023-03-17T10:34:43.712Z,3.55
2023-03-17T10:37:37.319Z,2.85
2023-03-17T10:40:10.531Z,2.67
2023-03-17T10:42:47.766Z,1.85
2023-03-17T10:45:17.214Z,2.08
2023-03-17T10:47:56.556Z,14.93
2023-03-17T10:50:32.977Z,3.83
2023-03-17T10:53:19.321Z,2.42
2023-03-17T10:56:06.772Z,3.17
2023-03-17T10:58:38.838Z,3.80
2023-03-17T11:01:29.146Z,2.45
2023-03-17T11:03:57.834Z,4.38
2023-03-17T11:06:49.089Z,1.67
2023-03-17T11:09:19.238Z,1.50
2023-03-17T11:11:59.374Z,1.60
2023-03-17T11:14:40.464Z,2.15
2023-03-17T11:17:19.099Z,1.50
2023-03-17T11:20:07.313Z,2.45
2023-03-17T11:22:43.048Z,1.40
2023-03-17T11:25:13.330Z,1.40
2023-03-17T11:28:17.923Z,2.10
2023-03-17T11:31:15.323Z,1.20
2023-03-17T11:33:55.125Z,1.90
2023-03-17T11:36:45.486Z,1.65
2023-03-17T11:39:21.065Z,3.33
2023-03-17T11:41:53.806Z,2.00
2023-03-17T11:44:30.168Z,2.08
2023-03-17T11:47:07.761Z,2.72
2023-03-17T11:49:37.817Z,1.60
2023-03-17T11:52:11.050Z,2.17
2023-03-17T11:55:05.229Z,2.00
2023-03-17T11:57:54.957Z,1.93
2023-03-17T12:00:42.136Z,1.60
2023-03-17T12:03:33.972Z,2.10
2023-03-17T12:06:08.596Z,2.13
2023-03-17T12:08:45.802Z,3.25
2023-03-17T12:11:23.702Z,3.50
2023-03-17T12:13:57.078Z,2.55
2023-03-17T12:16:52.563Z,12.25
2023-03-17T12:19:25.363Z,1.80
2023-03-17T12:22:11.546Z,2.65
2023-03-17T12:24:57.211Z,2.10
2023-03-17T12:27:28.587Z,1.80
2023-03-17T12:30:38.835Z,2.55
2023-03-17T12:33:18.140Z,3.78
2023-03-17T12:35:49.408Z,1.80
2023-03-17T12:39:02.157Z,1.63
2023-03-17T12:41:49.957Z,1.63
2023-03-17T12:44:39.264Z,2.45
2023-03-17T12:47:08.987Z,4.88
2023-03-17T12:49:42.263Z,5.57
2023-03-17T12:52:23.835Z,2.78
2023-03-17T12:54:55.072Z,2.30
2023-03-17T12:57:29.313Z,1.90
2023-03-17T13:00:25.450Z,1.95
2023-03-17T13:03:25.618Z,1.60
2023-03-17T13:06:08.555Z,3.72
2023-03-17T13:08:41.294Z,2.97
2023-03-17T13:11:47.183Z,2.72
2023-03-17T13:14:27.196Z,3.45
2023-03-17T13:17:37.090Z,4.00
2023-03-17T13:20:12.757Z,2.92
2023-03-17T13:23:13.254Z,2.20
2023-03-17T13:25:41.348Z,1.50
2023-03-17T13:28:11.897Z,2.08
2023-03-17T13:30:38.779Z,3.65
2023-03-17T13:33:11.562Z,2.15
2023-03-17T13:35:46.995Z,1.50
2023-03-17T13:38:38.285Z,4.35
2023-03-17T13:41:19.162Z,1.60
2023-03-17T13:43:58.207Z,2.47
2023-03-17T13:46:37.703Z,2.40
2023-03-17T13:49:19.740Z,1.52
2023-03-17T13:52:03.564Z,2.10
2023-03-17T13:54:34.459Z,4.43
2023-03-17T13:57:30.080Z,5.60
2023-03-17T14:00:28.188Z,1.70
2023-03-17T14:03:06.710Z,1.85
2023-03-17T14:05:38.077Z,2.30
2023-03-17T14:08:15.957Z,1.80
2023-03-17T14:10:54.042Z,2.00
2023-03-17T14:13:32.169Z,2.28
2023-03-17T14:16:17.703Z,5.25
2023-03-17T14:18:57.648Z,3.78
2023-03-17T14:21:34.616Z,2.00
2023-03-17T14:24:07.341Z,3.75
2023-03-17T14:26:36.758Z,2.58
2023-03-17T14:29:15.597Z,1.98
2023-03-17T14:31:50.237Z,1.88
2023-03-17T14:34:35.176Z,2.50
2023-03-17T14:37:13.668Z,1.98
2023-03-17T14:39:54.314Z,1.95
2023-03-17T14:42:27.284Z,2.20
2023-03-17T14:45:27.615Z,2.30
2023-03-17T14:48:04.965Z,4.13
2023-03-17T14:50:32.816Z,1.95
2023-03-17T14:53:33.351Z,2.80
2023-03-17T14:56:01.187Z,2.30
2023-03-17T14:58:42.043Z,1.83
2023-03-17T15:01:34.767Z,2.00
2023-03-17T15:09:34.335Z,3.95
2023-03-17T15:12:17.498Z,5.35
2023-03-17T15:14:47.675Z,2.63
2023-03-17T15:17:22.906Z,2.47
2023-03-17T15:19:57.483Z,2.90
2023-03-17T15:22:35.573Z,2.30
2023-03-17T15:25:26.538Z,1.80
2023-03-17T15:27:59.782Z,2.30
2023-03-17T15:30:37.417Z,3.30
2023-03-17T15:33:28.970Z,3.50
2023-03-17T15:35:56.953Z,2.45
2023-03-17T15:38:26.809Z,2.47
2023-03-17T15:40:56.247Z,2.95
2023-03-17T15:43:23.697Z,3.10
2023-03-17T15:46:07.075Z,3.45
2023-03-17T15:48:40.963Z,2.20
2023-03-17T15:51:10.900Z,1.90
2023-03-17T15:53:39.725Z,3.10
2023-03-17T15:56:11.232Z,9.13
2023-03-17T15:58:37.949Z,2.80
2023-03-17T16:01:12.664Z,4.13
2023-03-17T16:03:42.061Z,5.47
2023-03-17T16:06:20.882Z,3.13
2023-03-17T16:08:48.872Z,4.40
2023-03-17T16:11:19.126Z,3.30
2023-03-17T16:13:49.168Z,2.83
2023-03-17T16:16:27.097Z,3.42
2023-03-17T16:18:53.776Z,2.85
2023-03-17T16:21:23.045Z,3.13
2023-03-17T16:23:50.119Z,2.40
2023-03-17T16:26:18.913Z,2.97
2023-03-17T16:28:46.437Z,4.93
2023-03-17T16:31:20.122Z,5.13
2023-03-17T16:33:47.667Z,3.85
2023-03-17T16:36:17.389Z,3.78
2023-03-17T16:38:44.522Z,3.78
2023-03-17T16:41:28.430Z,4.10
2023-03-17T16:44:08.030Z,3.27
2023-03-17T16:46:35.767Z,4.22
2023-03-17T16:49:04.128Z,4.07
2023-03-17T16:51:33.023Z,3.70
2023-03-17T16:54:01.972Z,3.65
2023-03-17T16:56:31.665Z,5.43
2023-03-17T16:59:00.976Z,6.45
2023-03-17T17:01:29.743Z,7.07
2023-03-17T17:03:57.014Z,6.72
2023-03-17T17:06:24.473Z,5.95
2023-03-17T17:08:54.302Z,7.30
2023-03-17T17:11:21.519Z,6.25
2023-03-17T17:13:51.176Z,5.60
2023-03-17T17:16:24.637Z,7.60
2023-03-17T17:18:57.764Z,7.53
2023-03-17T17:21:27.835Z,7.68
2023-03-17T17:24:00.258Z,8.48
2023-03-17T17:26:29.144Z,10.00
2023-03-17T17:28:58.341Z,10.50
2023-03-17T17:31:25.683Z,11.65
2023-03-17T17:33:57.590Z,8.18
2023-03-17T17:36:28.428Z,5.68
2023-03-17T17:38:55.167Z,7.30
2023-03-17T17:41:24.356Z,5.40
2023-03-17T17:44:02.086Z,6.72
2023-03-17T17:46:44.027Z,6.50
2023-03-17T17:49:12.249Z,7.65
2023-03-17T17:51:39.073Z,9.38
2023-03-17T17:54:05.973Z,7.78
2023-03-17T17:56:42.092Z,8.60
2023-03-17T17:59:13.992Z,7.57
2023-03-17T18:01:47.317Z,5.63
2023-03-17T18:04:14.031Z,5.07
2023-03-17T18:06:46.058Z,7.20
2023-03-17T18:09:15.658Z,7.18
2023-03-17T18:11:45.673Z,19.23
2023-03-17T18:14:13.261Z,6.65
2023-03-17T18:16:40.589Z,5.93
2023-03-17T18:19:09.482Z,9.40
2023-03-17T18:21:36.689Z,8.82
2023-03-17T18:24:04.444Z,8.55
2023-03-17T18:26:33.058Z,5.07
2023-03-17T18:29:03.054Z,9.38
2023-03-17T18:34:46.366Z,43.50
2023-03-17T18:37:15.404Z,32.10
2023-03-17T18:40:12.551Z,15.90
2023-03-17T18:42:51.994Z,5.93
2023-03-17T18:45:23.507Z,6.53
2023-03-17T18:47:53.202Z,4.50
2023-03-17T18:50:23.329Z,3.67
2023-03-17T18:52:50.457Z,5.32
2023-03-17T18:55:17.790Z,4.68
2023-03-17T18:57:45.889Z,5.18
2023-03-17T19:00:17.493Z,3.90
2023-03-17T19:02:53.745Z,3.95
2023-03-17T19:05:25.543Z,11.70
2023-03-17T19:08:02.251Z,23.02
2023-03-17T19:10:32.008Z,27.50
2023-03-17T19:13:12.406Z,17.65
2023-03-17T19:15:41.005Z,18.88
2023-03-17T19:18:12.703Z,12.55
2023-03-17T19:20:49.166Z,12.40
2023-03-17T19:23:24.299Z,18.10
2023-03-17T19:25:53.641Z,15.15
2023-03-17T19:28:35.285Z,15.63
2023-03-17T19:31:13.815Z,16.52
2023-03-17T19:33:40.991Z,14.35
2023-03-17T19:36:14.831Z,11.68
2023-03-17T19:38:41.669Z,14.55
2023-03-17T19:41:08.795Z,14.50
2023-03-17T19:43:41.641Z,20.65
2023-03-17T19:46:16.454Z,32.15
2023-03-17T19:48:43.233Z,28.73
2023-03-17T19:51:10.103Z,22.45
2023-03-17T19:53:44.354Z,16.90
2023-03-17T19:56:11.214Z,15.90
2023-03-17T19:58:40.561Z,15.73
2023-03-17T20:01:13.333Z,14.82
2023-03-17T20:03:42.723Z,15.65
2023-03-17T20:06:14.954Z,15.10
2023-03-17T20:08:43.340Z,18.25
2023-03-17T20:11:14.950Z,31.50
2023-03-17T20:13:41.838Z,22.02
2023-03-17T20:16:09.105Z,27.95
2023-03-17T20:18:36.526Z,18.65
2023-03-17T20:21:05.836Z,20.35
2023-03-17T20:23:33.032Z,22.85
2023-03-17T20:26:02.325Z,21.92
2023-03-17T20:28:31.457Z,18.58
2023-03-17T20:30:59.895Z,16.08
2023-03-17T20:33:29.439Z,15.30
2023-03-17T20:35:59.421Z,18.20
2023-03-17T20:38:32.046Z,14.65
2023-03-17T20:41:19.167Z,16.50
2023-03-17T20:43:48.482Z,13.52
2023-03-17T20:46:21.511Z,15.45
2023-03-17T20:48:59.067Z,13.45
2023-03-17T20:51:29.279Z,14.25
2023-03-17T20:53:59.692Z,13.60
2023-03-17T20:56:29.955Z,13.73
2023-03-17T20:58:58.500Z,15.48
2023-03-17T21:01:26.826Z,14.93
2023-03-17T21:03:59.220Z,13.68
2023-03-17T21:06:31.279Z,22.50
2023-03-17T21:08:57.835Z,20.80
2023-03-17T21:11:26.927Z,19.15
2023-03-17T21:13:54.077Z,20.48
2023-03-17T21:16:24.050Z,22.45
2023-03-17T21:18:51.563Z,20.95
2023-03-17T21:21:18.962Z,24.25
2023-03-17T21:23:45.793Z,22.42
2023-03-17T21:26:16.788Z,13.32
2023-03-17T21:28:50.421Z,18.92
2023-03-17T21:31:25.575Z,21.08
2023-03-17T21:33:57.477Z,26.80
2023-03-17T21:36:24.196Z,23.52
2023-03-17T21:38:50.869Z,22.98
2023-03-17T21:41:23.843Z,25.55
2023-03-17T21:43:50.576Z,29.48
2023-03-17T21:46:17.297Z,27.95
2023-03-17T21:48:44.159Z,28.88
2023-03-17T21:51:14.062Z,32.45
2023-03-17T21:53:40.730Z,22.77
2023-03-17T21:56:08.917Z,22.95
2023-03-17T21:58:36.142Z,18.75
2023-03-17T22:01:08.252Z,23.23
2023-03-17T22:03:36.585Z,19.50
2023-03-17T22:06:08.247Z,19.20
2023-03-17T22:08:35.428Z,23.20
2023-03-17T22:11:10.941Z,21.95
2023-03-17T22:13:37.859Z,20.88
2023-03-17T22:16:06.913Z,18.67
2023-03-17T22:18:36.636Z,18.83
2023-03-17T22:21:04.948Z,18.75
2023-03-17T22:23:39.802Z,17.75
2023-03-17T22:26:06.676Z,24.10
2023-03-17T22:28:35.880Z,22.40
2023-03-17T22:31:06.761Z,17.25
2023-03-17T22:33:34.169Z,23.45
2023-03-17T22:36:00.900Z,23.17
2023-03-17T22:38:27.572Z,23.90
2023-03-17T22:41:02.203Z,23.52
2023-03-17T22:43:28.968Z,19.90
2023-03-17T22:45:58.287Z,21.35
2023-03-17T22:48:28.053Z,20.95
2023-03-17T22:50:54.688Z,17.08
2023-03-17T22:53:21.265Z,19.10
2023-03-17T22:55:47.856Z,22.13
2023-03-17T22:58:17.071Z,18.65
2023-03-17T23:00:43.706Z,23.17
2023-03-17T23:03:13.152Z,23.42
2023-03-17T23:05:45.673Z,20.40
2023-03-17T23:08:12.432Z,21.05
2023-03-17T23:10:43.455Z,26.63
2023-03-17T23:13:10.065Z,26.33
2023-03-17T23:15:36.793Z,20.45
2023-03-17T23:18:06.179Z,15.85
2023-03-17T23:20:33.377Z,15.20
2023-03-17T23:23:00.385Z,14.10
2023-03-17T23:25:27.129Z,11.55
2023-03-17T23:27:53.824Z,13.43
2023-03-17T23:30:21.244Z,13.88
2023-03-17T23:32:51.347Z,12.00
2023-03-17T23:35:19.605Z,9.77
2023-03-17T23:37:46.509Z,10.63
2023-03-17T23:40:17.154Z,16.98
2023-03-17T23:42:47.557Z,16.85
2023-03-17T23:45:18.516Z,17.20
2023-03-17T23:47:48.883Z,16.65
2023-03-17T23:50:16.117Z,20.92
2023-03-17T23:52:45.634Z,20.65
2023-03-17T23:55:14.985Z,18.95
2023-03-17T23:57:42.119Z,14.77
